sensor_id;sensor_type;location;lat;lon;timestamp;P1;durP1;ratioP1;P2;durP2;ratioP2
17372;SDS011;8803;48.116;11.590;2023-07-08T00:01:19;8.93;;;7.37;;
17372;SDS011;8803;48.116;11.590;2023-07-08T00:03:24;10.77;;;6.93;;
17372;SDS011;8803;48.116;11.590;2023-07-08T00:05:38;8.07;;;7.27;;
17372;SDS011;8803;48.116;11.590;2023-07-08T00:07:42;9.07;;;7.30;;
17372;SDS011;8803;48.116;11.590;2023-07-08T00:09:57;9.43;;;8.30;;
17372;SDS011;8803;48.116;11.590;2023-07-08T00:12:01;8.63;;;7.43;;
17372;SDS011;8803;48.116;11.590;2023-07-08T00:14:08;9.03;;;8.00;;
17372;SDS011;8803;48.116;11.590;2023-07-08T00:16:12;11.03;;;8.87;;
17372;SDS011;8803;48.116;11.590;2023-07-08T00:18:27;10.57;;;8.30;;
17372;SDS011;8803;48.116;11.590;2023-07-08T00:20:32;10.33;;;8.20;;
17372;SDS011;8803;48.116;11.590;2023-07-08T00:22:38;9.83;;;8.23;;
17372;SDS011;8803;48.116;11.590;2023-07-08T00:24:42;10.20;;;8.67;;
17372;SDS011;8803;48.116;11.590;2023-07-08T00:26:58;11.60;;;8.73;;
17372;SDS011;8803;48.116;11.590;2023-07-08T00:29:02;9.73;;;8.13;;
17372;SDS011;8803;48.116;11.590;2023-07-08T00:31:10;11.53;;;8.87;;
17372;SDS011;8803;48.116;11.590;2023-07-08T00:33:14;9.77;;;7.93;;
17372;SDS011;8803;48.116;11.590;2023-07-08T00:35:18;10.33;;;8.53;;
17372;SDS011;8803;48.116;11.590;2023-07-08T00:37:24;9.97;;;8.10;;
17372;SDS011;8803;48.116;11.590;2023-07-08T00:39:29;11.60;;;8.60;;
17372;SDS011;8803;48.116;11.590;2023-07-08T00:41:34;9.23;;;7.87;;
17372;SDS011;8803;48.116;11.590;2023-07-08T00:43:42;14.07;;;9.17;;
17372;SDS011;8803;48.116;11.590;2023-07-08T00:46:08;11.67;;;8.13;;
17372;SDS011;8803;48.116;11.590;2023-07-08T00:48:07;11.73;;;8.87;;
17372;SDS011;8803;48.116;11.590;2023-07-08T00:50:22;9.33;;;8.10;;
17372;SDS011;8803;48.116;11.590;2023-07-08T00:52:27;14.03;;;8.80;;
17372;SDS011;8803;48.116;11.590;2023-07-08T00:54:43;9.17;;;7.83;;
17372;SDS011;8803;48.116;11.590;2023-07-08T00:56:46;10.07;;;7.50;;
17372;SDS011;8803;48.116;11.590;2023-07-08T00:58:57;12.20;;;8.87;;
17372;SDS011;8803;48.116;11.590;2023-07-08T01:01:10;10.23;;;8.33;;
17372;SDS011;8803;48.116;11.590;2023-07-08T01:03:16;10.23;;;8.70;;
17372;SDS011;8803;48.116;11.590;2023-07-08T01:05:24;11.30;;;8.57;;
17372;SDS011;8803;48.116;11.590;2023-07-08T01:07:30;10.93;;;8.07;;
17372;SDS011;8803;48.116;11.590;2023-07-08T01:09:36;10.87;;;8.67;;
17372;SDS011;8803;48.116;11.590;2023-07-08T01:11:43;11.60;;;8.53;;
17372;SDS011;8803;48.116;11.590;2023-07-08T01:13:57;10.60;;;8.00;;
17372;SDS011;8803;48.116;11.590;2023-07-08T01:16:04;10.00;;;8.23;;
17372;SDS011;8803;48.116;11.590;2023-07-08T01:18:09;9.20;;;8.23;;
17372;SDS011;8803;48.116;11.590;2023-07-08T01:20:16;10.93;;;8.33;;
17372;SDS011;8803;48.116;11.590;2023-07-08T01:22:20;11.13;;;8.50;;
17372;SDS011;8803;48.116;11.590;2023-07-08T01:24:24;10.47;;;9.03;;
17372;SDS011;8803;48.116;11.590;2023-07-08T01:26:28;11.00;;;8.27;;
17372;SDS011;8803;48.116;11.590;2023-07-08T01:28:33;10.10;;;8.10;;
17372;SDS011;8803;48.116;11.590;2023-07-08T01:30:37;10.70;;;8.10;;
17372;SDS011;8803;48.116;11.590;2023-07-08T01:32:43;11.23;;;8.83;;
17372;SDS011;8803;48.116;11.590;2023-07-08T01:34:59;10.87;;;8.30;;
17372;SDS011;8803;48.116;11.590;2023-07-08T01:37:04;9.03;;;8.10;;
17372;SDS011;8803;48.116;11.590;2023-07-08T01:39:10;11.57;;;8.77;;
17372;SDS011;8803;48.116;11.590;2023-07-08T01:41:16;10.87;;;8.60;;
17372;SDS011;8803;48.116;11.590;2023-07-08T01:43:20;9.50;;;8.27;;
17372;SDS011;8803;48.116;11.590;2023-07-08T01:45:25;9.27;;;8.33;;
17372;SDS011;8803;48.116;11.590;2023-07-08T01:47:31;11.27;;;8.93;;
17372;SDS011;8803;48.116;11.590;2023-07-08T01:49:35;11.37;;;9.23;;
17372;SDS011;8803;48.116;11.590;2023-07-08T01:51:41;10.00;;;7.77;;
17372;SDS011;8803;48.116;11.590;2023-07-08T01:53:45;9.27;;;8.20;;
17372;SDS011;8803;48.116;11.590;2023-07-08T01:55:49;10.23;;;8.80;;
17372;SDS011;8803;48.116;11.590;2023-07-08T01:57:53;9.83;;;8.50;;
17372;SDS011;8803;48.116;11.590;2023-07-08T01:59:57;13.43;;;8.83;;
17372;SDS011;8803;48.116;11.590;2023-07-08T02:02:01;10.43;;;8.17;;
17372;SDS011;8803;48.116;11.590;2023-07-08T02:04:05;12.90;;;8.90;;
17372;SDS011;8803;48.116;11.590;2023-07-08T02:06:21;12.20;;;8.60;;
17372;SDS011;8803;48.116;11.590;2023-07-08T02:08:25;10.10;;;8.07;;
17372;SDS011;8803;48.116;11.590;2023-07-08T02:10:29;11.53;;;8.53;;
17372;SDS011;8803;48.116;11.590;2023-07-08T02:12:33;10.80;;;8.83;;
17372;SDS011;8803;48.116;11.590;2023-07-08T02:14:36;9.70;;;8.43;;
17372;SDS011;8803;48.116;11.590;2023-07-08T02:16:40;10.53;;;7.90;;
17372;SDS011;8803;48.116;11.590;2023-07-08T02:18:44;11.20;;;8.47;;
17372;SDS011;8803;48.116;11.590;2023-07-08T02:20:48;11.77;;;8.63;;
17372;SDS011;8803;48.116;11.590;2023-07-08T02:22:52;11.43;;;9.07;;
17372;SDS011;8803;48.116;11.590;2023-07-08T02:25:08;9.20;;;7.97;;
17372;SDS011;8803;48.116;11.590;2023-07-08T02:27:12;9.67;;;8.17;;
17372;SDS011;8803;48.116;11.590;2023-07-08T02:29:16;9.93;;;7.83;;
17372;SDS011;8803;48.116;11.590;2023-07-08T02:31:20;13.23;;;9.17;;
17372;SDS011;8803;48.116;11.590;2023-07-08T02:33:34;11.93;;;8.63;;
17372;SDS011;8803;48.116;11.590;2023-07-08T02:35:38;11.10;;;8.53;;
17372;SDS011;8803;48.116;11.590;2023-07-08T02:37:42;10.63;;;8.93;;
17372;SDS011;8803;48.116;11.590;2023-07-08T02:39:46;9.73;;;8.30;;
17372;SDS011;8803;48.116;11.590;2023-07-08T02:41:49;10.57;;;9.10;;
17372;SDS011;8803;48.116;11.590;2023-07-08T02:44:04;10.17;;;8.17;;
17372;SDS011;8803;48.116;11.590;2023-07-08T02:46:08;10.20;;;8.43;;
17372;SDS011;8803;48.116;11.590;2023-07-08T02:48:12;10.57;;;8.00;;
17372;SDS011;8803;48.116;11.590;2023-07-08T02:50:26;10.77;;;8.43;;
17372;SDS011;8803;48.116;11.590;2023-07-08T02:52:30;10.37;;;8.30;;
17372;SDS011;8803;48.116;11.590;2023-07-08T02:54:45;10.77;;;8.87;;
17372;SDS011;8803;48.116;11.590;2023-07-08T02:56:49;13.57;;;8.63;;
17372;SDS011;8803;48.116;11.590;2023-07-08T02:58:53;11.27;;;8.93;;
17372;SDS011;8803;48.116;11.590;2023-07-08T03:00:57;11.27;;;8.97;;
17372;SDS011;8803;48.116;11.590;2023-07-08T03:03:01;10.53;;;8.63;;
17372;SDS011;8803;48.116;11.590;2023-07-08T03:05:07;11.60;;;8.67;;
17372;SDS011;8803;48.116;11.590;2023-07-08T03:07:11;9.53;;;8.33;;
17372;SDS011;8803;48.116;11.590;2023-07-08T03:09:26;10.40;;;8.30;;
17372;SDS011;8803;48.116;11.590;2023-07-08T03:11:30;9.03;;;7.97;;
17372;SDS011;8803;48.116;11.590;2023-07-08T03:13:33;8.40;;;7.50;;
17372;SDS011;8803;48.116;11.590;2023-07-08T03:15:38;10.07;;;8.70;;
17372;SDS011;8803;48.116;11.590;2023-07-08T03:17:42;9.37;;;8.37;;
17372;SDS011;8803;48.116;11.590;2023-07-08T03:19:46;10.77;;;8.53;;
17372;SDS011;8803;48.116;11.590;2023-07-08T03:21:50;10.53;;;8.87;;
17372;SDS011;8803;48.116;11.590;2023-07-08T03:23:54;9.33;;;8.33;;
17372;SDS011;8803;48.116;11.590;2023-07-08T03:25:58;10.07;;;8.50;;
17372;SDS011;8803;48.116;11.590;2023-07-08T03:28:01;10.20;;;8.17;;
17372;SDS011;8803;48.116;11.590;2023-07-08T03:30:08;9.30;;;8.20;;
17372;SDS011;8803;48.116;11.590;2023-07-08T03:32:12;8.80;;;7.80;;
17372;SDS011;8803;48.116;11.590;2023-07-08T03:34:30;9.20;;;8.20;;
17372;SDS011;8803;48.116;11.590;2023-07-08T03:36:42;11.37;;;8.73;;
17372;SDS011;8803;48.116;11.590;2023-07-08T03:38:54;11.60;;;8.30;;
17372;SDS011;8803;48.116;11.590;2023-07-08T03:41:01;10.23;;;8.10;;
17372;SDS011;8803;48.116;11.590;2023-07-08T03:43:20;9.97;;;7.97;;
17372;SDS011;8803;48.116;11.590;2023-07-08T03:45:25;8.63;;;7.70;;
17372;SDS011;8803;48.116;11.590;2023-07-08T03:47:29;9.60;;;7.77;;
17372;SDS011;8803;48.116;11.590;2023-07-08T03:49:32;10.60;;;8.30;;
17372;SDS011;8803;48.116;11.590;2023-07-08T03:51:37;10.47;;;8.10;;
17372;SDS011;8803;48.116;11.590;2023-07-08T03:53:53;9.70;;;7.67;;
17372;SDS011;8803;48.116;11.590;2023-07-08T03:55:57;11.30;;;8.00;;
17372;SDS011;8803;48.116;11.590;2023-07-08T03:58:12;10.90;;;7.97;;
17372;SDS011;8803;48.116;11.590;2023-07-08T04:00:16;11.33;;;8.83;;
17372;SDS011;8803;48.116;11.590;2023-07-08T04:02:20;10.33;;;8.27;;
17372;SDS011;8803;48.116;11.590;2023-07-08T04:04:34;9.97;;;8.20;;
17372;SDS011;8803;48.116;11.590;2023-07-08T04:06:38;8.17;;;7.37;;
17372;SDS011;8803;48.116;11.590;2023-07-08T04:08:42;10.17;;;7.63;;
17372;SDS011;8803;48.116;11.590;2023-07-08T04:10:47;8.80;;;7.33;;
17372;SDS011;8803;48.116;11.590;2023-07-08T04:12:51;8.80;;;7.27;;
17372;SDS011;8803;48.116;11.590;2023-07-08T04:14:54;10.93;;;7.87;;
17372;SDS011;8803;48.116;11.590;2023-07-08T04:16:58;10.90;;;8.00;;
17372;SDS011;8803;48.116;11.590;2023-07-08T04:19:02;10.30;;;8.17;;
17372;SDS011;8803;48.116;11.590;2023-07-08T04:21:08;10.37;;;8.17;;
17372;SDS011;8803;48.116;11.590;2023-07-08T04:23:11;10.77;;;8.53;;
17372;SDS011;8803;48.116;11.590;2023-07-08T04:25:15;10.17;;;7.80;;
17372;SDS011;8803;48.116;11.590;2023-07-08T04:27:20;9.93;;;7.93;;
17372;SDS011;8803;48.116;11.590;2023-07-08T04:29:23;9.10;;;8.07;;
17372;SDS011;8803;48.116;11.590;2023-07-08T04:31:27;9.77;;;8.37;;
17372;SDS011;8803;48.116;11.590;2023-07-08T04:33:31;8.97;;;8.07;;
17372;SDS011;8803;48.116;11.590;2023-07-08T04:35:35;10.90;;;8.57;;
17372;SDS011;8803;48.116;11.590;2023-07-08T04:37:39;10.30;;;8.53;;
17372;SDS011;8803;48.116;11.590;2023-07-08T04:39:43;9.20;;;7.73;;
17372;SDS011;8803;48.116;11.590;2023-07-08T04:41:47;9.17;;;7.77;;
17372;SDS011;8803;48.116;11.590;2023-07-08T04:43:51;11.87;;;8.67;;
17372;SDS011;8803;48.116;11.590;2023-07-08T04:45:54;11.27;;;8.20;;
17372;SDS011;8803;48.116;11.590;2023-07-08T04:47:59;11.13;;;8.27;;
17372;SDS011;8803;48.116;11.590;2023-07-08T04:50:05;10.57;;;8.53;;
17372;SDS011;8803;48.116;11.590;2023-07-08T04:52:12;9.37;;;8.13;;
17372;SDS011;8803;48.116;11.590;2023-07-08T04:54:16;11.90;;;8.83;;
17372;SDS011;8803;48.116;11.590;2023-07-08T04:56:20;10.37;;;8.37;;
17372;SDS011;8803;48.116;11.590;2023-07-08T04:58:24;10.30;;;8.00;;
17372;SDS011;8803;48.116;11.590;2023-07-08T05:00:28;10.27;;;7.90;;
17372;SDS011;8803;48.116;11.590;2023-07-08T05:02:32;8.90;;;7.63;;
17372;SDS011;8803;48.116;11.590;2023-07-08T05:04:35;9.93;;;7.70;;
17372;SDS011;8803;48.116;11.590;2023-07-08T05:06:39;10.23;;;7.87;;
17372;SDS011;8803;48.116;11.590;2023-07-08T05:08:43;11.53;;;8.47;;
17372;SDS011;8803;48.116;11.590;2023-07-08T05:10:47;9.90;;;8.70;;
17372;SDS011;8803;48.116;11.590;2023-07-08T05:12:51;10.70;;;8.47;;
17372;SDS011;8803;48.116;11.590;2023-07-08T05:14:55;11.80;;;8.17;;
17372;SDS011;8803;48.116;11.590;2023-07-08T05:17:10;9.70;;;7.77;;
17372;SDS011;8803;48.116;11.590;2023-07-08T05:19:14;10.57;;;8.47;;
17372;SDS011;8803;48.116;11.590;2023-07-08T05:21:20;12.80;;;8.30;;
17372;SDS011;8803;48.116;11.590;2023-07-08T05:23:24;10.23;;;7.67;;
17372;SDS011;8803;48.116;11.590;2023-07-08T05:25:31;10.50;;;8.57;;
17372;SDS011;8803;48.116;11.590;2023-07-08T05:27:44;9.37;;;8.20;;
17372;SDS011;8803;48.116;11.590;2023-07-08T05:29:48;11.33;;;7.30;;
17372;SDS011;8803;48.116;11.590;2023-07-08T05:31:52;9.17;;;8.17;;
17372;SDS011;8803;48.116;11.590;2023-07-08T05:33:56;10.37;;;8.23;;
17372;SDS011;8803;48.116;11.590;2023-07-08T05:36:00;9.90;;;8.30;;
17372;SDS011;8803;48.116;11.590;2023-07-08T05:38:16;8.13;;;7.22;;
17372;SDS011;8803;48.116;11.590;2023-07-08T05:40:20;10.18;;;8.10;;
17372;SDS011;8803;48.116;11.590;2023-07-08T05:42:24;9.98;;;8.15;;
17372;SDS011;8803;48.116;11.590;2023-07-08T05:44:38;8.38;;;6.92;;
17372;SDS011;8803;48.116;11.590;2023-07-08T05:46:42;10.72;;;8.40;;
17372;SDS011;8803;48.116;11.590;2023-07-08T05:48:46;8.85;;;7.95;;
17372;SDS011;8803;48.116;11.590;2023-07-08T05:50:52;10.98;;;7.85;;
17372;SDS011;8803;48.116;11.590;2023-07-08T05:52:55;8.48;;;7.45;;
17372;SDS011;8803;48.116;11.590;2023-07-08T05:54:59;10.03;;;7.95;;
17372;SDS011;8803;48.116;11.590;2023-07-08T05:57:03;9.75;;;7.50;;
17372;SDS011;8803;48.116;11.590;2023-07-08T05:59:08;8.05;;;7.25;;
17372;SDS011;8803;48.116;11.590;2023-07-08T06:01:13;9.83;;;7.58;;
17372;SDS011;8803;48.116;11.590;2023-07-08T06:03:16;9.20;;;7.20;;
17372;SDS011;8803;48.116;11.590;2023-07-08T06:05:20;8.20;;;7.25;;
17372;SDS011;8803;48.116;11.590;2023-07-08T06:07:35;8.30;;;7.35;;
17372;SDS011;8803;48.116;11.590;2023-07-08T06:09:39;9.33;;;7.28;;
17372;SDS011;8803;48.116;11.590;2023-07-08T06:11:54;8.85;;;7.67;;
17372;SDS011;8803;48.116;11.590;2023-07-08T06:13:58;8.88;;;7.62;;
17372;SDS011;8803;48.116;11.590;2023-07-08T06:16:02;8.25;;;7.45;;
17372;SDS011;8803;48.116;11.590;2023-07-08T06:18:06;8.28;;;7.37;;
17372;SDS011;8803;48.116;11.590;2023-07-08T06:20:10;8.43;;;7.00;;
17372;SDS011;8803;48.116;11.590;2023-07-08T06:22:14;7.92;;;7.12;;
17372;SDS011;8803;48.116;11.590;2023-07-08T06:24:18;7.95;;;7.15;;
17372;SDS011;8803;48.116;11.590;2023-07-08T06:26:21;7.87;;;6.90;;
17372;SDS011;8803;48.116;11.590;2023-07-08T06:28:39;9.33;;;7.87;;
17372;SDS011;8803;48.116;11.590;2023-07-08T06:30:44;9.23;;;8.25;;
17372;SDS011;8803;48.116;11.590;2023-07-08T06:32:48;8.30;;;7.50;;
17372;SDS011;8803;48.116;11.590;2023-07-08T06:34:52;8.88;;;7.92;;
17372;SDS011;8803;48.116;11.590;2023-07-08T06:36:55;10.32;;;8.48;;
17372;SDS011;8803;48.116;11.590;2023-07-08T06:38:59;9.68;;;8.68;;
17372;SDS011;8803;48.116;11.590;2023-07-08T06:41:03;9.65;;;8.50;;
17372;SDS011;8803;48.116;11.590;2023-07-08T06:43:18;8.85;;;7.95;;
17372;SDS011;8803;48.116;11.590;2023-07-08T06:45:22;12.35;;;8.93;;
17372;SDS011;8803;48.116;11.590;2023-07-08T06:47:26;9.43;;;8.45;;
17372;SDS011;8803;48.116;11.590;2023-07-08T06:49:42;9.65;;;8.65;;
17372;SDS011;8803;48.116;11.590;2023-07-08T06:51:45;11.40;;;8.25;;
17372;SDS011;8803;48.116;11.590;2023-07-08T06:53:49;9.80;;;7.55;;
17372;SDS011;8803;48.116;11.590;2023-07-08T06:55:53;9.00;;;8.08;;
17372;SDS011;8803;48.116;11.590;2023-07-08T06:57:57;8.75;;;7.72;;
17372;SDS011;8803;48.116;11.590;2023-07-08T07:00:00;8.15;;;7.33;;
17372;SDS011;8803;48.116;11.590;2023-07-08T07:02:05;10.43;;;8.60;;
17372;SDS011;8803;48.116;11.590;2023-07-08T07:04:19;8.30;;;7.37;;
17372;SDS011;8803;48.116;11.590;2023-07-08T07:06:23;8.58;;;7.17;;
17372;SDS011;8803;48.116;11.590;2023-07-08T07:08:27;8.75;;;7.85;;
17372;SDS011;8803;48.116;11.590;2023-07-08T07:10:42;9.83;;;7.47;;
17372;SDS011;8803;48.116;11.590;2023-07-08T07:12:46;8.10;;;7.33;;
17372;SDS011;8803;48.116;11.590;2023-07-08T07:14:50;9.10;;;8.30;;
17372;SDS011;8803;48.116;11.590;2023-07-08T07:16:54;8.38;;;7.42;;
17372;SDS011;8803;48.116;11.590;2023-07-08T07:18:58;8.83;;;7.47;;
17372;SDS011;8803;48.116;11.590;2023-07-08T07:21:02;9.88;;;7.22;;
17372;SDS011;8803;48.116;11.590;2023-07-08T07:23:17;8.85;;;7.42;;
17372;SDS011;8803;48.116;11.590;2023-07-08T07:25:21;10.23;;;8.53;;
17372;SDS011;8803;48.116;11.590;2023-07-08T07:27:25;8.65;;;7.47;;
17372;SDS011;8803;48.116;11.590;2023-07-08T07:29:32;8.53;;;7.62;;
17372;SDS011;8803;48.116;11.590;2023-07-08T07:31:41;8.00;;;7.20;;
17372;SDS011;8803;48.116;11.590;2023-07-08T07:33:44;8.70;;;7.50;;
17372;SDS011;8803;48.116;11.590;2023-07-08T07:35:48;9.23;;;7.22;;
17372;SDS011;8803;48.116;11.590;2023-07-08T07:37:52;8.80;;;7.72;;
17372;SDS011;8803;48.116;11.590;2023-07-08T07:39:56;7.62;;;6.60;;
17372;SDS011;8803;48.116;11.590;2023-07-08T07:41:59;8.35;;;7.10;;
17372;SDS011;8803;48.116;11.590;2023-07-08T07:44:03;8.35;;;7.50;;
17372;SDS011;8803;48.116;11.590;2023-07-08T07:46:07;8.20;;;7.50;;
17372;SDS011;8803;48.116;11.590;2023-07-08T07:48:11;7.85;;;6.85;;
17372;SDS011;8803;48.116;11.590;2023-07-08T07:50:30;9.25;;;8.23;;
17372;SDS011;8803;48.116;11.590;2023-07-08T07:52:35;9.90;;;7.50;;
17372;SDS011;8803;48.116;11.590;2023-07-08T07:54:39;9.10;;;7.47;;
17372;SDS011;8803;48.116;11.590;2023-07-08T07:56:43;8.78;;;7.87;;
17372;SDS011;8803;48.116;11.590;2023-07-08T07:58:46;8.18;;;7.37;;
17372;SDS011;8803;48.116;11.590;2023-07-08T08:00:50;10.32;;;7.90;;
17372;SDS011;8803;48.116;11.590;2023-07-08T08:03:06;8.40;;;7.60;;
17372;SDS011;8803;48.116;11.590;2023-07-08T08:05:10;9.08;;;7.70;;
17372;SDS011;8803;48.116;11.590;2023-07-08T08:07:14;8.60;;;7.65;;
17372;SDS011;8803;48.116;11.590;2023-07-08T08:09:28;10.53;;;8.45;;
17372;SDS011;8803;48.116;11.590;2023-07-08T08:11:32;10.65;;;9.55;;
17372;SDS011;8803;48.116;11.590;2023-07-08T08:13:36;11.38;;;10.18;;
17372;SDS011;8803;48.116;11.590;2023-07-08T08:15:40;9.18;;;8.20;;
17372;SDS011;8803;48.116;11.590;2023-07-08T08:17:44;9.33;;;8.15;;
17372;SDS011;8803;48.116;11.590;2023-07-08T08:19:49;8.90;;;7.97;;
17372;SDS011;8803;48.116;11.590;2023-07-08T08:21:53;9.03;;;7.80;;
17372;SDS011;8803;48.116;11.590;2023-07-08T08:23:57;8.85;;;7.95;;
17372;SDS011;8803;48.116;11.590;2023-07-08T08:26:01;8.03;;;7.20;;
17372;SDS011;8803;48.116;11.590;2023-07-08T08:28:05;8.95;;;7.70;;
17372;SDS011;8803;48.116;11.590;2023-07-08T08:30:10;11.25;;;8.05;;
17372;SDS011;8803;48.116;11.590;2023-07-08T08:32:29;9.80;;;7.92;;
17372;SDS011;8803;48.116;11.590;2023-07-08T08:34:33;8.28;;;7.37;;
17372;SDS011;8803;48.116;11.590;2023-07-08T08:36:36;8.40;;;7.55;;
17372;SDS011;8803;48.116;11.590;2023-07-08T08:38:40;10.85;;;8.45;;
17372;SDS011;8803;48.116;11.590;2023-07-08T08:40:44;10.82;;;8.55;;
17372;SDS011;8803;48.116;11.590;2023-07-08T08:42:51;8.23;;;7.42;;
17372;SDS011;8803;48.116;11.590;2023-07-08T08:44:58;11.20;;;8.73;;
17372;SDS011;8803;48.116;11.590;2023-07-08T08:47:05;8.85;;;7.95;;
17372;SDS011;8803;48.116;11.590;2023-07-08T08:49:14;9.03;;;7.97;;
17372;SDS011;8803;48.116;11.590;2023-07-08T08:51:20;9.18;;;8.28;;
17372;SDS011;8803;48.116;11.590;2023-07-08T08:53:26;9.18;;;7.85;;
17372;SDS011;8803;48.116;11.590;2023-07-08T08:55:45;10.63;;;7.70;;
17372;SDS011;8803;48.116;11.590;2023-07-08T08:57:53;8.75;;;7.70;;
17372;SDS011;8803;48.116;11.590;2023-07-08T09:00:12;9.05;;;8.13;;
17372;SDS011;8803;48.116;11.590;2023-07-08T09:02:27;7.40;;;6.28;;
17372;SDS011;8803;48.116;11.590;2023-07-08T09:04:44;10.30;;;8.40;;
17372;SDS011;8803;48.116;11.590;2023-07-08T09:06:48;9.05;;;8.15;;
17372;SDS011;8803;48.116;11.590;2023-07-08T09:08:54;8.68;;;7.47;;
17372;SDS011;8803;48.116;11.590;2023-07-08T09:11:01;8.90;;;7.53;;
17372;SDS011;8803;48.116;11.590;2023-07-08T09:13:09;9.63;;;7.45;;
17372;SDS011;8803;48.116;11.590;2023-07-08T09:15:16;8.83;;;7.22;;
17372;SDS011;8803;48.116;11.590;2023-07-08T09:17:21;12.28;;;7.65;;
17372;SDS011;8803;48.116;11.590;2023-07-08T09:19:29;10.82;;;6.97;;
17372;SDS011;8803;48.116;11.590;2023-07-08T09:21:46;8.75;;;7.85;;
17372;SDS011;8803;48.116;11.590;2023-07-08T09:23:52;9.03;;;8.13;;
17372;SDS011;8803;48.116;11.590;2023-07-08T09:26:01;10.78;;;8.88;;
17372;SDS011;8803;48.116;11.590;2023-07-08T09:28:07;9.43;;;7.95;;
17372;SDS011;8803;48.116;11.590;2023-07-08T09:30:11;9.85;;;8.45;;
17372;SDS011;8803;48.116;11.590;2023-07-08T09:32:19;7.58;;;6.75;;
17372;SDS011;8803;48.116;11.590;2023-07-08T09:34:41;9.40;;;8.40;;
17372;SDS011;8803;48.116;11.590;2023-07-08T09:36:46;13.05;;;8.45;;
17372;SDS011;8803;48.116;11.590;2023-07-08T09:39:00;11.18;;;7.03;;
17372;SDS011;8803;48.116;11.590;2023-07-08T09:41:04;9.43;;;7.20;;
17372;SDS011;8803;48.116;11.590;2023-07-08T09:43:11;8.43;;;7.22;;
17372;SDS011;8803;48.116;11.590;2023-07-08T09:45:28;12.30;;;8.53;;
17372;SDS011;8803;48.116;11.590;2023-07-08T09:47:35;8.15;;;7.03;;
17372;SDS011;8803;48.116;11.590;2023-07-08T09:49:42;8.93;;;7.50;;
17372;SDS011;8803;48.116;11.590;2023-07-08T09:51:46;9.23;;;7.22;;
17372;SDS011;8803;48.116;11.590;2023-07-08T09:53:51;8.35;;;7.30;;
17372;SDS011;8803;48.116;11.590;2023-07-08T09:55:56;9.88;;;7.85;;
17372;SDS011;8803;48.116;11.590;2023-07-08T09:58:02;9.93;;;8.08;;
17372;SDS011;8803;48.116;11.590;2023-07-08T10:00:09;7.55;;;6.75;;
17372;SDS011;8803;48.116;11.590;2023-07-08T10:02:25;9.10;;;7.97;;
17372;SDS011;8803;48.116;11.590;2023-07-08T10:04:32;10.08;;;7.78;;
17372;SDS011;8803;48.116;11.590;2023-07-08T10:06:36;8.55;;;7.20;;
17372;SDS011;8803;48.116;11.590;2023-07-08T10:08:52;7.35;;;6.28;;
17372;SDS011;8803;48.116;11.590;2023-07-08T10:11:00;8.28;;;6.65;;
17372;SDS011;8803;48.116;11.590;2023-07-08T10:13:16;9.08;;;7.08;;
17372;SDS011;8803;48.116;11.590;2023-07-08T10:15:23;8.13;;;7.08;;
17372;SDS011;8803;48.116;11.590;2023-07-08T10:17:30;9.13;;;6.78;;
17372;SDS011;8803;48.116;11.590;2023-07-08T10:19:35;8.53;;;7.37;;
17372;SDS011;8803;48.116;11.590;2023-07-08T10:21:40;8.05;;;7.10;;
17372;SDS011;8803;48.116;11.590;2023-07-08T10:23:48;11.45;;;7.37;;
17372;SDS011;8803;48.116;11.590;2023-07-08T10:26:05;7.83;;;6.28;;
17372;SDS011;8803;48.116;11.590;2023-07-08T10:28:17;8.48;;;6.42;;
17372;SDS011;8803;48.116;11.590;2023-07-08T10:30:49;8.10;;;6.10;;
17372;SDS011;8803;48.116;11.590;2023-07-08T10:32:45;8.68;;;6.12;;
17372;SDS011;8803;48.116;11.590;2023-07-08T10:35:08;6.75;;;5.95;;
17372;SDS011;8803;48.116;11.590;2023-07-08T10:37:16;8.78;;;6.45;;
17372;SDS011;8803;48.116;11.590;2023-07-08T10:42:15;6.53;;;5.92;;
17372;SDS011;8803;48.116;11.590;2023-07-08T10:44:26;7.83;;;6.30;;
17372;SDS011;8803;48.116;11.590;2023-07-08T10:46:45;8.48;;;6.33;;
17372;SDS011;8803;48.116;11.590;2023-07-08T10:49:06;7.92;;;5.90;;
17372;SDS011;8803;48.116;11.590;2023-07-08T10:51:15;11.55;;;6.03;;
17372;SDS011;8803;48.116;11.590;2023-07-08T10:53:37;7.85;;;5.87;;
17372;SDS011;8803;48.116;11.590;2023-07-08T10:55:46;6.60;;;5.28;;
17372;SDS011;8803;48.116;11.590;2023-07-08T10:58:31;9.25;;;6.00;;
17372;SDS011;8803;48.116;11.590;2023-07-08T11:00:45;7.55;;;5.42;;
17372;SDS011;8803;48.116;11.590;2023-07-08T11:05:37;6.65;;;5.95;;
17372;SDS011;8803;48.116;11.590;2023-07-08T11:07:42;6.95;;;6.22;;
17372;SDS011;8803;48.116;11.590;2023-07-08T11:09:58;6.05;;;5.45;;
17372;SDS011;8803;48.116;11.590;2023-07-08T11:12:07;6.80;;;6.10;;
17372;SDS011;8803;48.116;11.590;2023-07-08T11:14:22;7.08;;;5.95;;
17372;SDS011;8803;48.116;11.590;2023-07-08T11:16:30;8.35;;;6.67;;
17372;SDS011;8803;48.116;11.590;2023-07-08T11:18:41;8.78;;;6.20;;
17372;SDS011;8803;48.116;11.590;2023-07-08T11:20:44;8.50;;;5.95;;
17372;SDS011;8803;48.116;11.590;2023-07-08T11:23:01;7.60;;;6.30;;
17372;SDS011;8803;48.116;11.590;2023-07-08T11:25:08;8.73;;;6.53;;
17372;SDS011;8803;48.116;11.590;2023-07-08T11:27:26;7.45;;;6.10;;
17372;SDS011;8803;48.116;11.590;2023-07-08T11:29:34;6.87;;;5.55;;
17372;SDS011;8803;48.116;11.590;2023-07-08T11:31:49;6.65;;;5.75;;
17372;SDS011;8803;48.116;11.590;2023-07-08T11:33:54;6.53;;;5.72;;
17372;SDS011;8803;48.116;11.590;2023-07-08T11:35:59;6.30;;;5.60;;
17372;SDS011;8803;48.116;11.590;2023-07-08T11:38:05;7.53;;;5.58;;
17372;SDS011;8803;48.116;11.590;2023-07-08T11:40:18;8.60;;;6.58;;
17372;SDS011;8803;48.116;11.590;2023-07-08T11:44:43;7.17;;;5.50;;
17372;SDS011;8803;48.116;11.590;2023-07-08T11:46:54;8.83;;;5.58;;
17372;SDS011;8803;48.116;11.590;2023-07-08T11:49:13;9.33;;;7.12;;
17372;SDS011;8803;48.116;11.590;2023-07-08T11:51:19;8.43;;;6.95;;
17372;SDS011;8803;48.116;11.590;2023-07-08T11:53:38;10.00;;;7.12;;
17372;SDS011;8803;48.116;11.590;2023-07-08T11:55:58;8.73;;;6.20;;
17372;SDS011;8803;48.116;11.590;2023-07-08T11:58:13;10.28;;;6.90;;
17372;SDS011;8803;48.116;11.590;2023-07-08T12:00:23;8.93;;;6.42;;
17372;SDS011;8803;48.116;11.590;2023-07-08T12:02:28;8.45;;;5.90;;
17372;SDS011;8803;48.116;11.590;2023-07-08T12:04:56;7.05;;;6.25;;
17372;SDS011;8803;48.116;11.590;2023-07-08T12:07:03;8.65;;;7.05;;
17372;SDS011;8803;48.116;11.590;2023-07-08T12:09:22;9.33;;;6.70;;
17372;SDS011;8803;48.116;11.590;2023-07-08T12:11:37;7.40;;;6.33;;
17372;SDS011;8803;48.116;11.590;2023-07-08T12:13:43;7.03;;;6.25;;
17372;SDS011;8803;48.116;11.590;2023-07-08T12:15:47;8.95;;;6.85;;
17372;SDS011;8803;48.116;11.590;2023-07-08T12:18:06;7.95;;;6.10;;
17372;SDS011;8803;48.116;11.590;2023-07-08T12:20:16;7.55;;;6.75;;
17372;SDS011;8803;48.116;11.590;2023-07-08T12:22:34;7.55;;;6.75;;
17372;SDS011;8803;48.116;11.590;2023-07-08T12:26:51;8.55;;;6.62;;
17372;SDS011;8803;48.116;11.590;2023-07-08T12:28:56;6.40;;;5.80;;
17372;SDS011;8803;48.116;11.590;2023-07-08T12:31:00;11.73;;;7.05;;
17372;SDS011;8803;48.116;11.590;2023-07-08T12:33:05;9.15;;;6.90;;
17372;SDS011;8803;48.116;11.590;2023-07-08T12:35:23;7.83;;;6.58;;
17372;SDS011;8803;48.116;11.590;2023-07-08T12:37:28;7.92;;;7.12;;
17372;SDS011;8803;48.116;11.590;2023-07-08T12:39:33;8.53;;;6.33;;
17372;SDS011;8803;48.116;11.590;2023-07-08T12:41:37;8.08;;;6.95;;
17372;SDS011;8803;48.116;11.590;2023-07-08T12:43:40;8.45;;;6.67;;
17372;SDS011;8803;48.116;11.590;2023-07-08T12:45:45;7.50;;;6.22;;
17372;SDS011;8803;48.116;11.590;2023-07-08T12:48:00;6.90;;;6.20;;
17372;SDS011;8803;48.116;11.590;2023-07-08T12:50:05;7.25;;;6.50;;
17372;SDS011;8803;48.116;11.590;2023-07-08T12:52:19;7.72;;;6.92;;
17372;SDS011;8803;48.116;11.590;2023-07-08T12:54:24;7.33;;;5.97;;